sensor_id;sensor_type;location;lat;lon;timestamp;P1;durP1;ratioP1;P2;durP2;ratioP2
21274;SDS011;36472;52.170;20.884;2022-08-21T00:02:12;5.85;;;4.80;;
21274;SDS011;36472;52.170;20.884;2022-08-21T00:04:42;9.75;;;5.15;;
21274;SDS011;36472;52.170;20.884;2022-08-21T00:07:24;7.53;;;5.10;;
21274;SDS011;36472;52.170;20.884;2022-08-21T00:09:53;6.05;;;4.57;;
21274;SDS011;36472;52.170;20.884;2022-08-21T00:12:23;6.38;;;5.00;;
21274;SDS011;36472;52.170;20.884;2022-08-21T00:14:52;7.15;;;5.53;;
21274;SDS011;36472;52.170;20.884;2022-08-21T00:17:25;7.15;;;4.82;;
21274;SDS011;36472;52.170;20.884;2022-08-21T00:19:54;6.97;;;5.00;;
21274;SDS011;36472;52.170;20.884;2022-08-21T00:22:23;5.90;;;5.25;;
21274;SDS011;36472;52.170;20.884;2022-08-21T00:24:51;5.78;;;5.18;;
21274;SDS011;36472;52.170;20.884;2022-08-21T00:27:20;6.45;;;5.28;;
21274;SDS011;36472;52.170;20.884;2022-08-21T00:29:49;7.00;;;5.00;;
21274;SDS011;36472;52.170;20.884;2022-08-21T00:32:21;7.20;;;4.60;;
21274;SDS011;36472;52.170;20.884;2022-08-21T00:34:54;5.18;;;4.75;;
21274;SDS011;36472;52.170;20.884;2022-08-21T00:37:23;5.07;;;4.57;;
21274;SDS011;36472;52.170;20.884;2022-08-21T00:39:52;5.57;;;4.80;;
21274;SDS011;36472;52.170;20.884;2022-08-21T00:42:21;7.72;;;5.10;;
21274;SDS011;36472;52.170;20.884;2022-08-21T00:44:50;5.80;;;5.20;;
21274;SDS011;36472;52.170;20.884;2022-08-21T00:47:18;5.90;;;5.22;;
21274;SDS011;36472;52.170;20.884;2022-08-21T00:49:47;7.95;;;4.80;;
21274;SDS011;36472;52.170;20.884;2022-08-21T00:52:19;6.72;;;4.72;;
21274;SDS011;36472;52.170;20.884;2022-08-21T00:54:54;6.43;;;4.95;;
21274;SDS011;36472;52.170;20.884;2022-08-21T00:57:28;6.32;;;4.63;;
21274;SDS011;36472;52.170;20.884;2022-08-21T01:00:07;6.85;;;4.65;;
21274;SDS011;36472;52.170;20.884;2022-08-21T01:02:42;7.28;;;4.95;;
21274;SDS011;36472;52.170;20.884;2022-08-21T01:05:11;6.38;;;4.78;;
21274;SDS011;36472;52.170;20.884;2022-08-21T01:07:42;5.05;;;4.57;;
21274;SDS011;36472;52.170;20.884;2022-08-21T01:10:12;5.85;;;4.57;;
21274;SDS011;36472;52.170;20.884;2022-08-21T01:12:50;5.70;;;4.72;;
21274;SDS011;36472;52.170;20.884;2022-08-21T01:15:23;6.68;;;4.93;;
21274;SDS011;36472;52.170;20.884;2022-08-21T01:17:57;5.90;;;5.05;;
21274;SDS011;36472;52.170;20.884;2022-08-21T01:20:26;6.15;;;5.20;;
21274;SDS011;36472;52.170;20.884;2022-08-21T01:23:00;5.80;;;4.78;;
21274;SDS011;36472;52.170;20.884;2022-08-21T01:25:29;6.13;;;4.97;;
21274;SDS011;36472;52.170;20.884;2022-08-21T01:28:01;5.30;;;4.45;;
21274;SDS011;36472;52.170;20.884;2022-08-21T01:30:39;4.70;;;4.30;;
21274;SDS011;36472;52.170;20.884;2022-08-21T01:33:11;4.82;;;4.05;;
21274;SDS011;36472;52.170;20.884;2022-08-21T01:35:39;5.32;;;4.80;;
21274;SDS011;36472;52.170;20.884;2022-08-21T01:38:09;6.53;;;4.78;;
21274;SDS011;36472;52.170;20.884;2022-08-21T01:40:39;5.22;;;4.72;;
21274;SDS011;36472;52.170;20.884;2022-08-21T01:43:07;4.57;;;4.13;;
21274;SDS011;36472;52.170;20.884;2022-08-21T01:45:36;5.57;;;4.70;;
21274;SDS011;36472;52.170;20.884;2022-08-21T01:48:05;5.65;;;5.10;;
21274;SDS011;36472;52.170;20.884;2022-08-21T01:50:34;5.80;;;5.20;;
21274;SDS011;36472;52.170;20.884;2022-08-21T01:53:03;6.35;;;5.38;;
21274;SDS011;36472;52.170;20.884;2022-08-21T01:55:34;5.65;;;5.15;;
21274;SDS011;36472;52.170;20.884;2022-08-21T01:58:02;5.60;;;5.03;;
21274;SDS011;36472;52.170;20.884;2022-08-21T02:00:31;8.05;;;4.93;;
21274;SDS011;36472;52.170;20.884;2022-08-21T02:03:00;7.53;;;5.15;;
21274;SDS011;36472;52.170;20.884;2022-08-21T02:05:28;6.15;;;5.35;;
21274;SDS011;36472;52.170;20.884;2022-08-21T02:07:57;8.85;;;5.22;;
21274;SDS011;36472;52.170;20.884;2022-08-21T02:10:27;6.95;;;5.22;;
21274;SDS011;36472;52.170;20.884;2022-08-21T02:13:00;5.90;;;5.30;;
21274;SDS011;36472;52.170;20.884;2022-08-21T02:15:29;5.97;;;5.38;;
21274;SDS011;36472;52.170;20.884;2022-08-21T02:17:59;6.00;;;5.40;;
21274;SDS011;36472;52.170;20.884;2022-08-21T02:20:31;6.40;;;5.68;;
21274;SDS011;36472;52.170;20.884;2022-08-21T02:23:04;7.32;;;5.90;;
21274;SDS011;36472;52.170;20.884;2022-08-21T02:25:35;6.15;;;4.97;;
21274;SDS011;36472;52.170;20.884;2022-08-21T02:28:07;7.13;;;5.72;;
21274;SDS011;36472;52.170;20.884;2022-08-21T02:30:40;5.50;;;4.88;;
21274;SDS011;36472;52.170;20.884;2022-08-21T02:33:11;5.53;;;5.03;;
21274;SDS011;36472;52.170;20.884;2022-08-21T02:35:42;5.93;;;4.70;;
21274;SDS011;36472;52.170;20.884;2022-08-21T02:38:14;6.65;;;5.35;;
21274;SDS011;36472;52.170;20.884;2022-08-21T02:40:47;6.00;;;5.40;;
21274;SDS011;36472;52.170;20.884;2022-08-21T02:43:20;5.72;;;5.22;;
21274;SDS011;36472;52.170;20.884;2022-08-21T02:45:52;6.53;;;5.13;;
21274;SDS011;36472;52.170;20.884;2022-08-21T02:48:24;7.53;;;5.40;;
21274;SDS011;36472;52.170;20.884;2022-08-21T02:50:57;6.05;;;5.40;;
21274;SDS011;36472;52.170;20.884;2022-08-21T02:53:30;6.60;;;5.43;;
21274;SDS011;36472;52.170;20.884;2022-08-21T02:56:02;6.40;;;5.22;;
21274;SDS011;36472;52.170;20.884;2022-08-21T02:58:36;7.65;;;5.50;;
21274;SDS011;36472;52.170;20.884;2022-08-21T03:01:08;6.60;;;5.22;;
21274;SDS011;36472;52.170;20.884;2022-08-21T03:03:40;6.07;;;5.22;;
21274;SDS011;36472;52.170;20.884;2022-08-21T03:06:11;7.93;;;5.93;;
21274;SDS011;36472;52.170;20.884;2022-08-21T03:08:42;5.78;;;5.25;;
21274;SDS011;36472;52.170;20.884;2022-08-21T03:11:12;6.70;;;5.43;;
21274;SDS011;36472;52.170;20.884;2022-08-21T03:13:43;6.82;;;5.03;;
21274;SDS011;36472;52.170;20.884;2022-08-21T03:16:12;5.72;;;4.88;;
21274;SDS011;36472;52.170;20.884;2022-08-21T03:18:41;5.88;;;5.28;;
21274;SDS011;36472;52.170;20.884;2022-08-21T03:21:10;5.88;;;5.38;;
21274;SDS011;36472;52.170;20.884;2022-08-21T03:23:39;6.47;;;5.47;;
21274;SDS011;36472;52.170;20.884;2022-08-21T03:26:10;6.75;;;5.80;;
21274;SDS011;36472;52.170;20.884;2022-08-21T03:28:39;6.20;;;5.60;;
21274;SDS011;36472;52.170;20.884;2022-08-21T03:31:10;5.50;;;5.00;;
21274;SDS011;36472;52.170;20.884;2022-08-21T03:33:38;5.38;;;4.88;;
21274;SDS011;36472;52.170;20.884;2022-08-21T03:36:07;5.55;;;5.00;;
21274;SDS011;36472;52.170;20.884;2022-08-21T03:38:37;5.63;;;5.07;;
21274;SDS011;36472;52.170;20.884;2022-08-21T03:41:07;6.07;;;5.47;;
21274;SDS011;36472;52.170;20.884;2022-08-21T03:43:36;7.22;;;5.18;;
21274;SDS011;36472;52.170;20.884;2022-08-21T03:46:05;7.10;;;5.70;;
21274;SDS011;36472;52.170;20.884;2022-08-21T03:48:36;7.13;;;5.38;;
21274;SDS011;36472;52.170;20.884;2022-08-21T03:51:06;8.60;;;5.63;;
21274;SDS011;36472;52.170;20.884;2022-08-21T03:53:35;6.40;;;5.75;;
21274;SDS011;36472;52.170;20.884;2022-08-21T03:56:04;7.00;;;5.63;;
21274;SDS011;36472;52.170;20.884;2022-08-21T03:58:34;8.13;;;5.53;;
21274;SDS011;36472;52.170;20.884;2022-08-21T04:01:03;5.90;;;5.35;;
21274;SDS011;36472;52.170;20.884;2022-08-21T04:03:34;7.35;;;5.28;;
21274;SDS011;36472;52.170;20.884;2022-08-21T04:06:06;5.47;;;4.97;;
21274;SDS011;36472;52.170;20.884;2022-08-21T04:08:35;6.55;;;5.78;;
21274;SDS011;36472;52.170;20.884;2022-08-21T04:11:04;7.15;;;6.05;;
21274;SDS011;36472;52.170;20.884;2022-08-21T04:13:34;7.03;;;5.82;;
21274;SDS011;36472;52.170;20.884;2022-08-21T04:16:10;6.60;;;5.63;;
21274;SDS011;36472;52.170;20.884;2022-08-21T04:18:41;7.05;;;5.70;;
21274;SDS011;36472;52.170;20.884;2022-08-21T04:21:10;8.20;;;5.88;;
21274;SDS011;36472;52.170;20.884;2022-08-21T04:23:39;6.10;;;5.50;;
21274;SDS011;36472;52.170;20.884;2022-08-21T04:26:08;8.38;;;5.57;;
21274;SDS011;36472;52.170;20.884;2022-08-21T04:28:38;6.57;;;5.32;;
21274;SDS011;36472;52.170;20.884;2022-08-21T04:31:07;5.75;;;5.20;;
21274;SDS011;36472;52.170;20.884;2022-08-21T04:33:36;7.25;;;5.43;;
21274;SDS011;36472;52.170;20.884;2022-08-21T04:36:24;6.13;;;5.40;;
21274;SDS011;36472;52.170;20.884;2022-08-21T04:38:54;6.03;;;5.43;;
21274;SDS011;36472;52.170;20.884;2022-08-21T04:41:23;6.20;;;5.60;;
21274;SDS011;36472;52.170;20.884;2022-08-21T04:43:54;6.53;;;5.82;;
21274;SDS011;36472;52.170;20.884;2022-08-21T04:46:23;5.28;;;4.78;;
21274;SDS011;36472;52.170;20.884;2022-08-21T04:48:51;7.38;;;5.50;;
21274;SDS011;36472;52.170;20.884;2022-08-21T04:51:21;6.90;;;5.95;;
21274;SDS011;36472;52.170;20.884;2022-08-21T04:53:59;5.70;;;4.85;;
21274;SDS011;36472;52.170;20.884;2022-08-21T04:56:35;5.97;;;5.32;;
21274;SDS011;36472;52.170;20.884;2022-08-21T04:59:11;8.13;;;5.53;;
21274;SDS011;36472;52.170;20.884;2022-08-21T05:01:44;6.80;;;5.63;;
21274;SDS011;36472;52.170;20.884;2022-08-21T05:04:16;6.72;;;5.93;;
21274;SDS011;36472;52.170;20.884;2022-08-21T05:06:52;6.13;;;5.53;;
21274;SDS011;36472;52.170;20.884;2022-08-21T05:09:25;9.48;;;5.55;;
21274;SDS011;36472;52.170;20.884;2022-08-21T05:11:56;6.68;;;5.95;;
21274;SDS011;36472;52.170;20.884;2022-08-21T05:14:25;6.75;;;5.68;;
21274;SDS011;36472;52.170;20.884;2022-08-21T05:16:54;6.65;;;5.22;;
21274;SDS011;36472;52.170;20.884;2022-08-21T05:19:23;6.85;;;5.45;;
21274;SDS011;36472;52.170;20.884;2022-08-21T05:21:53;6.07;;;5.38;;
21274;SDS011;36472;52.170;20.884;2022-08-21T05:24:22;6.00;;;5.20;;
21274;SDS011;36472;52.170;20.884;2022-08-21T05:26:51;7.85;;;5.35;;
21274;SDS011;36472;52.170;20.884;2022-08-21T05:29:20;5.88;;;5.28;;
21274;SDS011;36472;52.170;20.884;2022-08-21T05:31:50;6.38;;;4.90;;
21274;SDS011;36472;52.170;20.884;2022-08-21T05:34:19;6.13;;;5.47;;
21274;SDS011;36472;52.170;20.884;2022-08-21T05:36:50;5.57;;;5.00;;
21274;SDS011;36472;52.170;20.884;2022-08-21T05:39:20;5.85;;;5.25;;
21274;SDS011;36472;52.170;20.884;2022-08-21T05:41:49;6.70;;;6.00;;
21274;SDS011;36472;52.170;20.884;2022-08-21T05:44:17;7.28;;;6.00;;
21274;SDS011;36472;52.170;20.884;2022-08-21T05:46:48;6.15;;;5.55;;
21274;SDS011;36472;52.170;20.884;2022-08-21T05:49:17;8.75;;;5.93;;
21274;SDS011;36472;52.170;20.884;2022-08-21T05:51:46;6.32;;;5.72;;
21274;SDS011;36472;52.170;20.884;2022-08-21T05:54:14;6.32;;;5.72;;
21274;SDS011;36472;52.170;20.884;2022-08-21T05:56:45;5.97;;;5.38;;
21274;SDS011;36472;52.170;20.884;2022-08-21T05:59:13;7.68;;;5.82;;
21274;SDS011;36472;52.170;20.884;2022-08-21T06:01:42;7.30;;;5.15;;
21274;SDS011;36472;52.170;20.884;2022-08-21T06:04:12;8.57;;;5.53;;
21274;SDS011;36472;52.170;20.884;2022-08-21T06:06:41;9.13;;;5.85;;
21274;SDS011;36472;52.170;20.884;2022-08-21T06:09:10;7.80;;;5.93;;
21274;SDS011;36472;52.170;20.884;2022-08-21T06:11:38;7.90;;;5.72;;
21274;SDS011;36472;52.170;20.884;2022-08-21T06:14:09;7.78;;;5.80;;
21274;SDS011;36472;52.170;20.884;2022-08-21T06:16:38;6.25;;;5.70;;
21274;SDS011;36472;52.170;20.884;2022-08-21T06:19:06;6.93;;;6.22;;
21274;SDS011;36472;52.170;20.884;2022-08-21T06:21:35;7.45;;;5.95;;
21274;SDS011;36472;52.170;20.884;2022-08-21T06:24:04;6.28;;;5.68;;
21274;SDS011;36472;52.170;20.884;2022-08-21T06:26:34;7.10;;;6.25;;
21274;SDS011;36472;52.170;20.884;2022-08-21T06:29:04;6.32;;;5.72;;
21274;SDS011;36472;52.170;20.884;2022-08-21T06:31:34;8.50;;;5.70;;
21274;SDS011;36472;52.170;20.884;2022-08-21T06:34:03;6.18;;;5.15;;
21274;SDS011;36472;52.170;20.884;2022-08-21T06:36:32;7.97;;;5.78;;
21274;SDS011;36472;52.170;20.884;2022-08-21T06:39:01;6.38;;;5.03;;
21274;SDS011;36472;52.170;20.884;2022-08-21T06:41:50;5.72;;;5.22;;
21274;SDS011;36472;52.170;20.884;2022-08-21T06:44:26;8.18;;;6.47;;
21274;SDS011;36472;52.170;20.884;2022-08-21T06:46:57;6.72;;;6.03;;
21274;SDS011;36472;52.170;20.884;2022-08-21T06:49:25;7.50;;;5.95;;
21274;SDS011;36472;52.170;20.884;2022-08-21T06:51:54;5.93;;;5.40;;
21274;SDS011;36472;52.170;20.884;2022-08-21T06:54:23;8.50;;;5.22;;
21274;SDS011;36472;52.170;20.884;2022-08-21T06:56:52;6.35;;;5.53;;
21274;SDS011;36472;52.170;20.884;2022-08-21T06:59:20;6.45;;;5.57;;
21274;SDS011;36472;52.170;20.884;2022-08-21T07:01:49;6.50;;;5.68;;
21274;SDS011;36472;52.170;20.884;2022-08-21T07:04:19;8.10;;;5.53;;
21274;SDS011;36472;52.170;20.884;2022-08-21T07:06:48;8.43;;;6.13;;
21274;SDS011;36472;52.170;20.884;2022-08-21T07:09:17;7.50;;;5.57;;
21274;SDS011;36472;52.170;20.884;2022-08-21T07:11:52;5.80;;;5.20;;
21274;SDS011;36472;52.170;20.884;2022-08-21T07:14:23;5.63;;;5.07;;
21274;SDS011;36472;52.170;20.884;2022-08-21T07:16:52;6.30;;;5.70;;
21274;SDS011;36472;52.170;20.884;2022-08-21T07:19:22;6.18;;;5.53;;
21274;SDS011;36472;52.170;20.884;2022-08-21T07:21:57;5.90;;;5.20;;
21274;SDS011;36472;52.170;20.884;2022-08-21T07:24:28;5.93;;;5.32;;
21274;SDS011;36472;52.170;20.884;2022-08-21T07:26:57;5.68;;;5.22;;
21274;SDS011;36472;52.170;20.884;2022-08-21T07:29:26;6.22;;;5.63;;
21274;SDS011;36472;52.170;20.884;2022-08-21T07:31:54;9.23;;;5.60;;
21274;SDS011;36472;52.170;20.884;2022-08-21T07:34:24;5.43;;;4.93;;
21274;SDS011;36472;52.170;20.884;2022-08-21T07:36:53;8.57;;;5.18;;
21274;SDS011;36472;52.170;20.884;2022-08-21T07:39:24;6.10;;;5.50;;
21274;SDS011;36472;52.170;20.884;2022-08-21T07:41:53;6.30;;;5.13;;
21274;SDS011;36472;52.170;20.884;2022-08-21T07:44:21;6.15;;;4.88;;
21274;SDS011;36472;52.170;20.884;2022-08-21T07:46:50;5.97;;;5.20;;
21274;SDS011;36472;52.170;20.884;2022-08-21T07:49:19;6.35;;;4.82;;
21274;SDS011;36472;52.170;20.884;2022-08-21T07:51:49;5.40;;;4.90;;
21274;SDS011;36472;52.170;20.884;2022-08-21T07:54:18;5.30;;;4.55;;
21274;SDS011;36472;52.170;20.884;2022-08-21T07:56:59;5.30;;;4.80;;
21274;SDS011;36472;52.170;20.884;2022-08-21T07:59:28;5.20;;;4.70;;
21274;SDS011;36472;52.170;20.884;2022-08-21T08:01:57;5.18;;;4.65;;
21274;SDS011;36472;52.170;20.884;2022-08-21T08:04:26;4.78;;;4.28;;
21274;SDS011;36472;52.170;20.884;2022-08-21T08:06:56;5.50;;;4.07;;
21274;SDS011;36472;52.170;20.884;2022-08-21T08:09:25;4.80;;;4.38;;
21274;SDS011;36472;52.170;20.884;2022-08-21T08:11:53;6.28;;;4.63;;
21274;SDS011;36472;52.170;20.884;2022-08-21T08:14:22;5.03;;;4.45;;
21274;SDS011;36472;52.170;20.884;2022-08-21T08:16:57;6.53;;;4.32;;
21274;SDS011;36472;52.170;20.884;2022-08-21T08:19:26;4.50;;;4.10;;
21274;SDS011;36472;52.170;20.884;2022-08-21T08:21:56;5.10;;;4.63;;
21274;SDS011;36472;52.170;20.884;2022-08-21T08:24:24;4.88;;;4.38;;
21274;SDS011;36472;52.170;20.884;2022-08-21T08:26:53;4.78;;;4.35;;
21274;SDS011;36472;52.170;20.884;2022-08-21T08:29:23;6.28;;;4.28;;
21274;SDS011;36472;52.170;20.884;2022-08-21T08:31:53;7.63;;;5.10;;
21274;SDS011;36472;52.170;20.884;2022-08-21T08:34:22;5.13;;;4.55;;
21274;SDS011;36472;52.170;20.884;2022-08-21T08:36:51;4.88;;;4.30;;
21274;SDS011;36472;52.170;20.884;2022-08-21T08:39:23;5.30;;;4.72;;
21274;SDS011;36472;52.170;20.884;2022-08-21T08:41:58;6.10;;;4.03;;
21274;SDS011;36472;52.170;20.884;2022-08-21T08:44:57;4.65;;;4.25;;
21274;SDS011;36472;52.170;20.884;2022-08-21T08:47:30;5.00;;;4.50;;
21274;SDS011;36472;52.170;20.884;2022-08-21T08:50:04;4.85;;;4.50;;
21274;SDS011;36472;52.170;20.884;2022-08-21T08:52:40;7.45;;;4.38;;
21274;SDS011;36472;52.170;20.884;2022-08-21T08:55:20;6.15;;;4.20;;
21274;SDS011;36472;52.170;20.884;2022-08-21T08:58:02;4.50;;;4.10;;
21274;SDS011;36472;52.170;20.884;2022-08-21T09:00:32;5.10;;;4.22;;
21274;SDS011;36472;52.170;20.884;2022-08-21T09:03:02;5.63;;;3.95;;
21274;SDS011;36472;52.170;20.884;2022-08-21T09:05:35;6.75;;;4.10;;
21274;SDS011;36472;52.170;20.884;2022-08-21T09:08:15;5.55;;;3.95;;
21274;SDS011;36472;52.170;20.884;2022-08-21T09:11:20;6.80;;;4.70;;
21274;SDS011;36472;52.170;20.884;2022-08-21T09:14:00;6.15;;;4.65;;
21274;SDS011;36472;52.170;20.884;2022-08-21T09:16:45;5.07;;;3.90;;
21274;SDS011;36472;52.170;20.884;2022-08-21T09:19:27;4.65;;;4.07;;
21274;SDS011;36472;52.170;20.884;2022-08-21T09:22:16;5.28;;;4.28;;
21274;SDS011;36472;52.170;20.884;2022-08-21T09:24:58;4.70;;;4.15;;
21274;SDS011;36472;52.170;20.884;2022-08-21T09:27:39;5.20;;;4.50;;
21274;SDS011;36472;52.170;20.884;2022-08-21T09:30:09;5.25;;;4.53;;
21274;SDS011;36472;52.170;20.884;2022-08-21T09:32:39;5.35;;;4.82;;
21274;SDS011;36472;52.170;20.884;2022-08-21T09:35:09;4.40;;;4.00;;
21274;SDS011;36472;52.170;20.884;2022-08-21T09:37:48;4.70;;;4.20;;
21274;SDS011;36472;52.170;20.884;2022-08-21T09:40:30;7.53;;;4.40;;
21274;SDS011;36472;52.170;20.884;2022-08-21T09:43:06;7.57;;;4.60;;
21274;SDS011;36472;52.170;20.884;2022-08-21T09:45:46;4.88;;;4.10;;
21274;SDS011;36472;52.170;20.884;2022-08-21T09:48:28;5.25;;;4.28;;
21274;SDS011;36472;52.170;20.884;2022-08-21T09:51:06;5.00;;;4.30;;
21274;SDS011;36472;52.170;20.884;2022-08-21T09:53:39;5.38;;;4.50;;
21274;SDS011;36472;52.170;20.884;2022-08-21T09:56:19;4.28;;;3.97;;
21274;SDS011;36472;52.170;20.884;2022-08-21T09:59:15;4.85;;;4.07;;
21274;SDS011;36472;52.170;20.884;2022-08-21T10:01:53;4.40;;;4.00;;
21274;SDS011;36472;52.170;20.884;2022-08-21T10:04:27;4.93;;;4.38;;
21274;SDS011;36472;52.170;20.884;2022-08-21T10:07:08;11.48;;;4.35;;
21274;SDS011;36472;52.170;20.884;2022-08-21T10:09:39;4.75;;;3.75;;
21274;SDS011;36472;52.170;20.884;2022-08-21T10:12:20;4.57;;;4.13;;
21274;SDS011;36472;52.170;20.884;2022-08-21T10:14:59;5.93;;;4.32;;
21274;SDS011;36472;52.170;20.884;2022-08-21T10:17:43;5.80;;;4.35;;
21274;SDS011;36472;52.170;20.884;2022-08-21T10:20:33;4.15;;;3.70;;
21274;SDS011;36472;52.170;20.884;2022-08-21T10:23:18;4.15;;;3.75;;
21274;SDS011;36472;52.170;20.884;2022-08-21T10:26:05;5.95;;;3.50;;
21274;SDS011;36472;52.170;20.884;2022-08-21T10:28:50;7.05;;;4.03;;
21274;SDS011;36472;52.170;20.884;2022-08-21T10:31:36;4.13;;;3.65;;
21274;SDS011;36472;52.170;20.884;2022-08-21T10:34:31;4.13;;;3.40;;
21274;SDS011;36472;52.170;20.884;2022-08-21T10:37:18;4.13;;;3.72;;
21274;SDS011;36472;52.170;20.884;2022-08-21T10:40:07;4.63;;;3.17;;
21274;SDS011;36472;52.170;20.884;2022-08-21T10:42:52;3.53;;;3.25;;
21274;SDS011;36472;52.170;20.884;2022-08-21T10:45:44;5.72;;;3.58;;
21274;SDS011;36472;52.170;20.884;2022-08-21T10:48:28;7.30;;;3.88;;
21274;SDS011;36472;52.170;20.884;2022-08-21T10:51:04;6.25;;;3.50;;
21274;SDS011;36472;52.170;20.884;2022-08-21T10:53:50;7.15;;;4.45;;
21274;SDS011;36472;52.170;20.884;2022-08-21T10:56:33;3.83;;;3.53;;
21274;SDS011;36472;52.170;20.884;2022-08-21T10:59:18;4.55;;;4.13;;
21274;SDS011;36472;52.170;20.884;2022-08-21T11:02:04;5.35;;;3.78;;
21274;SDS011;36472;52.170;20.884;2022-08-21T11:04:49;6.07;;;4.10;;
21274;SDS011;36472;52.170;20.884;2022-08-21T11:07:28;6.25;;;3.88;;
21274;SDS011;36472;52.170;20.884;2022-08-21T11:10:05;6.10;;;3.75;;
21274;SDS011;36472;52.170;20.884;2022-08-21T11:12:46;5.53;;;4.20;;
21274;SDS011;36472;52.170;20.884;2022-08-21T11:15:33;5.13;;;4.07;;
21274;SDS011;36472;52.170;20.884;2022-08-21T11:18:15;4.55;;;3.50;;
21274;SDS011;36472;52.170;20.884;2022-08-21T11:20:57;4.00;;;3.70;;
21274;SDS011;36472;52.170;20.884;2022-08-21T11:23:38;3.78;;;3.47;;
21274;SDS011;36472;52.170;20.884;2022-08-21T11:26:15;3.55;;;3.25;;
21274;SDS011;36472;52.170;20.884;2022-08-21T11:28:58;3.67;;;3.33;;
21274;SDS011;36472;52.170;20.884;2022-08-21T11:31:48;4.68;;;4.03;;
21274;SDS011;36472;52.170;20.884;2022-08-21T11:34:35;4.68;;;3.97;;
21274;SDS011;36472;52.170;20.884;2022-08-21T11:37:21;4.43;;;3.80;;
21274;SDS011;36472;52.170;20.884;2022-08-21T11:40:12;3.72;;;3.42;;
21274;SDS011;36472;52.170;20.884;2022-08-21T11:43:10;4.63;;;4.13;;
21274;SDS011;36472;52.170;20.884;2022-08-21T11:45:49;4.32;;;3.80;;
21274;SDS011;36472;52.170;20.884;2022-08-21T11:48:27;5.50;;;4.22;;
21274;SDS011;36472;52.170;20.884;2022-08-21T11:51:13;4.68;;;3.92;;
21274;SDS011;36472;52.170;20.884;2022-08-21T11:53:50;5.05;;;3.38;;
21274;SDS011;36472;52.170;20.884;2022-08-21T11:56:34;4.10;;;3.70;;
21274;SDS011;36472;52.170;20.884;2022-08-21T11:59:10;4.00;;;3.55;;
21274;SDS011;36472;52.170;20.884;2022-08-21T12:01:48;4.95;;;3.10;;
21274;SDS011;36472;52.170;20.884;2022-08-21T12:04:22;5.13;;;3.85;;
21274;SDS011;36472;52.170;20.884;2022-08-21T12:06:56;4.18;;;3.65;;
21274;SDS011;36472;52.170;20.884;2022-08-21T12:09:53;5.35;;;3.08;;
21274;SDS011;36472;52.170;20.884;2022-08-21T12:12:25;4.47;;;3.53;;
21274;SDS011;36472;52.170;20.884;2022-08-21T12:15:13;3.67;;;3.38;;
21274;SDS011;36472;52.170;20.884;2022-08-21T12:17:55;3.55;;;3.20;;
21274;SDS011;36472;52.170;20.884;2022-08-21T12:20:39;4.07;;;3.67;;
21274;SDS011;36472;52.170;20.884;2022-08-21T12:23:18;3.58;;;3.17;;
21274;SDS011;36472;52.170;20.884;2022-08-21T12:26:02;3.78;;;3.13;;
21274;SDS011;36472;52.170;20.884;2022-08-21T12:31:54;3.42;;;3.13;;
21274;SDS011;36472;52.170;20.884;2022-08-21T12:34:31;3.40;;;3.10;;
21274;SDS011;36472;52.170;20.884;2022-08-21T12:37:05;4.40;;;3.63;;
21274;SDS011;36472;52.170;20.884;2022-08-21T12:39:46;3.63;;;2.65;;
21274;SDS011;36472;52.170;20.884;2022-08-21T12:42:22;4.43;;;3.70;;
21274;SDS011;36472;52.170;20.884;2022-08-21T12:45:03;3.58;;;3.28;;
21274;SDS011;36472;52.170;20.884;2022-08-21T12:47:44;4.40;;;3.28;;
21274;SDS011;36472;52.170;20.884;2022-08-21T12:50:19;4.88;;;3.40;;
21274;SDS011;36472;52.170;20.884;2022-08-21T12:52:58;3.90;;;3.25;;
21274;SDS011;36472;52.170;20.884;2022-08-21T12:55:46;4.15;;;3.25;;
21274;SDS011;36472;52.170;20.884;2022-08-21T12:58:18;4.05;;;3.15;;
21274;SDS011;36472;52.170;20.884;2022-08-21T13:00:49;4.10;;;3.28;;
21274;SDS011;36472;52.170;20.884;2022-08-21T13:03:22;3.78;;;3.35;;
21274;SDS011;36472;52.170;20.884;2022-08-21T13:05:52;3.47;;;3.17;;
21274;SDS011;36472;52.170;20.884;2022-08-21T13:08:22;3.53;;;2.80;;
21274;SDS011;36472;52.170;20.884;2022-08-21T13:10:56;3.40;;;3.10;;
21274;SDS011;36472;52.170;20.884;2022-08-21T13:13:42;3.65;;;3.33;;
21274;SDS011;36472;52.170;20.884;2022-08-21T13:16:19;3.50;;;3.20;;
21274;SDS011;36472;52.170;20.884;2022-08-21T13:18:58;4.97;;;3.22;;
21274;SDS011;36472;52.170;20.884;2022-08-21T13:21:31;4.38;;;3.17;;
21274;SDS011;36472;52.170;20.884;2022-08-21T13:24:08;3.78;;;3.30;;
21274;SDS011;36472;52.170;20.884;2022-08-21T13:27:14;5.55;;;3.20;;
21274;SDS011;36472;52.170;20.884;2022-08-21T13:30:01;3.58;;;3.17;;
21274;SDS011;36472;52.170;20.884;2022-08-21T13:32:35;3.97;;;3.30;;
21274;SDS011;36472;52.170;20.884;2022-08-21T13:35:11;3.67;;;3.00;;
21274;SDS011;36472;52.170;20.884;2022-08-21T13:37:45;3.33;;;3.03;;
21274;SDS011;36472;52.170;20.884;2022-08-21T13:40:18;5.32;;;3.45;;
21274;SDS011;36472;52.170;20.884;2022-08-21T13:42:53;3.50;;;3.08;;
21274;SDS011;36472;52.170;20.884;2022-08-21T13:45:26;4.85;;;3.45;;
21274;SDS011;36472;52.170;20.884;2022-08-21T13:47:59;3.17;;;2.90;;
21274;SDS011;36472;52.170;20.884;2022-08-21T13:50:33;3.15;;;2.80;;
21274;SDS011;36472;52.170;20.884;2022-08-21T13:53:07;3.95;;;3.63;;
21274;SDS011;36472;52.170;20.884;2022-08-21T13:55:49;5.50;;;3.42;;
21274;SDS011;36472;52.170;20.884;2022-08-21T13:58:25;3.35;;;2.97;;
21274;SDS011;36472;52.170;20.884;2022-08-21T14:00:58;3.60;;;3.30;;
21274;SDS011;36472;52.170;20.884;2022-08-21T14:03:33;3.50;;;3.20;;
21274;SDS011;36472;52.170;20.884;2022-08-21T14:06:12;9.63;;;8.55;;
21274;SDS011;36472;52.170;20.884;2022-08-21T14:08:47;5.22;;;4.30;;
21274;SDS011;36472;52.170;20.884;2022-08-21T14:11:21;5.35;;;4.18;;
21274;SDS011;36472;52.170;20.884;2022-08-21T14:13:51;5.95;;;4.40;;
21274;SDS011;36472;52.170;20.884;2022-08-21T14:16:29;4.70;;;4.20;;
21274;SDS011;36472;52.170;20.884;2022-08-21T14:19:17;3.60;;;3.30;;
21274;SDS011;36472;52.170;20.884;2022-08-21T14:21:49;3.85;;;3.47;;
21274;SDS011;36472;52.170;20.884;2022-08-21T14:24:25;5.57;;;3.50;;
21274;SDS011;36472;52.170;20.884;2022-08-21T14:26:57;3.95;;;3.63;;
21274;SDS011;36472;52.170;20.884;2022-08-21T14:29:33;3.58;;;3.10;;
21274;SDS011;36472;52.170;20.884;2022-08-21T14:32:11;4.13;;;3.72;;
21274;SDS011;36472;52.170;20.884;2022-08-21T14:34:50;3.75;;;3.38;;
21274;SDS011;36472;52.170;20.884;2022-08-21T14:37:20;3.60;;;3.30;;
21274;SDS011;36472;52.170;20.884;2022-08-21T14:39:50;4.60;;;3.40;;
21274;SDS011;36472;52.170;20.884;2022-08-21T14:42:19;3.40;;;3.10;;
21274;SDS011;36472;52.170;20.884;2022-08-21T14:44:48;4.70;;;3.20;;
21274;SDS011;36472;52.170;20.884;2022-08-21T14:47:18;3.55;;;3.03;;
21274;SDS011;36472;52.170;20.884;2022-08-21T14:49:47;3.53;;;3.22;;
21274;SDS011;36472;52.170;20.884;2022-08-21T14:52:16;4.57;;;3.50;;
21274;SDS011;36472;52.170;20.884;2022-08-21T14:54:45;3.17;;;2.88;;
21274;SDS011;36472;52.170;20.884;2022-08-21T14:57:14;4.32;;;3.92;;
21274;SDS011;36472;52.170;20.884;2022-08-21T14:59:43;3.58;;;3.25;;
21274;SDS011;36472;52.170;20.884;2022-08-21T15:02:11;4.03;;;3.10;;
21274;SDS011;36472;52.170;20.884;2022-08-21T15:04:41;5.63;;;3.25;;
21274;SDS011;36472;52.170;20.884;2022-08-21T15:07:10;3.67;;;3.33;;
21274;SDS011;36472;52.170;20.884;2022-08-21T15:09:39;3.33;;;3.03;;
21274;SDS011;36472;52.170;20.884;2022-08-21T15:12:08;3.28;;;2.97;;
21274;SDS011;36472;52.170;20.884;2022-08-21T15:14:39;3.83;;;3.50;;
21274;SDS011;36472;52.170;20.884;2022-08-21T15:17:09;4.68;;;3.38;;